Time;durP1;ratioP1;P1;durP2;ratioP2;P2;SDS_P1;SDS_P2;PMS_P1;PMS_P2;Temp;Humidity;BMP_temperature;BMP_pressure;BME280_temperature;BME280_humidity;BME280_pressure;Samples;Min_cycle;Max_cycle;Signal;HPM_P1;HPM_P2
2021/10/28 00:12:20;;;;;;;1.00;0.70;;;19.40;40.80;19.70;94346.00;;;;10435486;28;45138;-62
2021/10/28 00:17:39;;;;;;;0.50;0.50;;;19.40;40.10;19.70;94351.00;;;;10419083;28;47451;-62
2021/10/28 00:22:40;;;;;;;0.60;0.50;;;19.40;40.10;19.70;94332.00;;;;10432874;28;46872;-61
2021/10/28 00:27:40;;;;;;;0.57;0.50;;;19.40;40.10;19.70;94345.00;;;;10433182;28;45593;-61
2021/10/28 00:32:41;;;;;;;0.60;0.60;;;19.40;40.10;19.70;94332.00;;;;10432320;28;47216;-61
2021/10/28 00:37:42;;;;;;;0.70;0.52;;;19.40;40.10;19.70;94355.00;;;;10432731;28;47590;-62
2021/10/28 00:42:43;;;;;;;0.77;0.60;;;19.40;40.10;19.70;94352.00;;;;10432904;28;47067;-61
2021/10/28 00:47:44;;;;;;;0.50;0.50;;;19.40;40.00;19.70;94340.00;;;;10432081;28;46964;-62
2021/10/28 00:52:44;;;;;;;1.00;0.68;;;19.40;40.10;19.70;94351.00;;;;10432655;28;47210;-61
2021/10/28 00:57:46;;;;;;;0.50;0.50;;;19.40;40.10;19.70;94357.00;;;;10414024;28;47927;-63
2021/10/28 01:02:46;;;;;;;0.70;0.57;;;19.40;40.00;19.70;94342.00;;;;10427149;28;45334;-62
2021/10/28 01:07:47;;;;;;;0.50;0.50;;;19.40;40.00;19.70;94338.00;;;;10431018;28;46141;-62
2021/10/28 01:12:48;;;;;;;0.50;0.40;;;19.40;40.10;19.70;94359.00;;;;10431326;28;46830;-62
2021/10/28 01:17:48;;;;;;;0.85;0.60;;;19.40;40.00;19.70;94337.00;;;;10432809;28;46732;-63
2021/10/28 01:22:49;;;;;;;0.50;0.50;;;19.40;40.10;19.70;94342.00;;;;10431769;28;47539;-62
2021/10/28 01:27:50;;;;;;;0.50;0.50;;;19.40;40.10;19.70;94345.00;;;;10431609;28;47042;-62
2021/10/28 01:32:50;;;;;;;0.50;0.43;;;19.40;40.00;19.70;94347.00;;;;10414233;28;47409;-62
2021/10/28 01:37:51;;;;;;;1.30;0.45;;;19.40;40.00;19.70;94341.00;;;;10413981;28;48119;-62
2021/10/28 01:42:52;;;;;;;0.90;0.60;;;19.40;40.10;19.70;94350.00;;;;10435566;28;45336;-61
2021/10/28 01:47:52;;;;;;;0.50;0.50;;;19.40;40.00;19.70;94346.00;;;;10422999;28;47350;-61
2021/10/28 01:52:53;;;;;;;0.50;0.50;;;19.40;40.00;19.70;94332.00;;;;10423482;28;47151;-61
2021/10/28 01:57:54;;;;;;;0.55;0.45;;;19.40;40.00;19.70;94326.00;;;;10438651;28;45164;-61
2021/10/28 02:02:55;;;;;;;0.60;0.40;;;19.40;40.00;19.70;94334.00;;;;10437611;28;47259;-60
2021/10/28 02:07:55;;;;;;;0.50;0.50;;;19.40;40.00;19.70;94318.00;;;;10436740;28;47421;-61
2021/10/28 02:12:57;;;;;;;0.50;0.50;;;19.30;40.00;19.70;94316.00;;;;10438623;28;46704;-61
2021/10/28 02:17:57;;;;;;;0.60;0.47;;;19.40;40.00;19.70;94322.00;;;;10439237;28;47165;-62
2021/10/28 02:22:58;;;;;;;0.50;0.47;;;19.30;40.00;19.60;94322.00;;;;10440003;28;46748;-61
2021/10/28 02:27:59;;;;;;;0.75;0.50;;;19.40;40.10;19.70;94316.00;;;;10439251;28;45332;-61
2021/10/28 02:33:00;;;;;;;0.65;0.40;;;19.40;40.00;19.70;94316.00;;;;10439986;28;45223;-62
2021/10/28 02:38:01;;;;;;;0.73;0.52;;;19.40;40.10;19.70;94321.00;;;;10438395;28;47311;-62
2021/10/28 02:43:02;;;;;;;0.60;0.50;;;19.40;40.00;19.70;94330.00;;;;10438616;28;45323;-61
2021/10/28 02:48:03;;;;;;;0.30;0.30;;;19.40;40.00;19.70;94312.00;;;;10449480;22;45439;-66
2021/10/28 02:53:04;;;;;;;0.47;0.47;;;19.40;40.10;19.70;94319.00;;;;10435987;28;46523;-66
2021/10/28 02:58:05;;;;;;;0.65;0.60;;;19.40;40.00;19.70;94299.00;;;;10419180;28;47093;-66
2021/10/28 03:03:05;;;;;;;0.50;0.50;;;19.30;40.00;19.70;94304.00;;;;10419451;28;46838;-66
2021/10/28 03:08:06;;;;;;;0.40;0.38;;;19.40;40.00;19.70;94296.00;;;;10418540;28;47344;-67
2021/10/28 03:13:07;;;;;;;0.63;0.50;;;19.40;40.00;19.70;94300.00;;;;10418707;28;48074;-67
2021/10/28 03:28:54;;;;;;;0.73;0.50;;;19.40;40.00;19.60;94310.00;;;;10434997;28;45108;-66
2021/10/28 03:33:56;;;;;;;0.93;0.70;;;19.30;40.00;19.60;94284.00;;;;10434198;28;47099;-66
2021/10/28 03:39:24;;;;;;;0.50;0.40;;;19.30;40.00;19.60;94279.00;;;;10434233;28;46243;-66
2021/10/28 03:45:30;;;;;;;0.50;0.47;;;19.30;40.00;19.60;94288.00;;;;10434720;28;45362;-66
2021/10/28 03:50:22;;;;;;;0.50;0.50;;;19.30;40.00;19.60;94273.00;;;;10432704;28;45309;-67
2021/10/28 04:06:10;;;;;;;0.68;0.40;;;19.30;40.00;19.60;94289.00;;;;10433315;28;45348;-65
2021/10/28 04:32:29;;;;;;;0.47;0.47;;;19.30;40.10;19.60;94277.00;;;;10434369;28;46036;-67
2021/10/28 04:37:30;;;;;;;1.00;0.68;;;19.30;40.00;19.60;94289.00;;;;10416105;28;48003;-67
2021/10/28 04:42:31;;;;;;;0.47;0.47;;;19.30;40.00;19.60;94291.00;;;;10433209;28;45355;-67
2021/10/28 04:47:32;;;;;;;0.60;0.60;;;19.40;40.70;19.60;94285.00;;;;10433718;28;46668;-67
2021/10/28 04:52:33;;;;;;;0.52;0.52;;;19.30;40.00;19.60;94279.00;;;;10416318;28;47201;-67
2021/10/28 04:57:34;;;;;;;0.60;0.50;;;19.30;40.70;19.60;94296.00;;;;10415482;28;47149;-67
2021/10/28 05:02:35;;;;;;;0.50;0.40;;;19.30;40.00;19.60;94281.00;;;;10432730;28;45382;-67
2021/10/28 05:07:35;;;;;;;0.88;0.60;;;19.30;40.00;19.60;94286.00;;;;10431997;28;47027;-67
2021/10/28 05:12:36;;;;;;;0.85;0.50;;;19.30;40.00;19.60;94282.00;;;;10415535;28;48103;-67
2021/10/28 05:17:38;;;;;;;0.73;0.43;;;19.30;40.10;19.60;94279.00;;;;10436230;28;45552;-67
2021/10/28 05:22:38;;;;;;;0.60;0.60;;;19.40;40.00;19.60;94281.00;;;;10439326;28;45194;-68
2021/10/28 05:27:39;;;;;;;0.70;0.60;;;19.30;39.90;19.60;94287.00;;;;10421954;28;47352;-67
2021/10/28 05:32:40;;;;;;;0.90;0.70;;;19.30;40.00;19.60;94265.00;;;;10421367;28;47565;-67
2021/10/28 05:37:40;;;;;;;0.70;0.57;;;19.40;40.00;19.60;94274.00;;;;10437907;28;45404;-67
2021/10/28 05:42:48;;;;;;;0.50;0.50;;;19.40;40.00;19.60;94267.00;;;;10421348;28;47450;-68
2021/10/28 05:47:49;;;;;;;0.70;0.70;;;19.30;40.00;19.60;94262.00;;;;10438653;28;45255;-67
2021/10/28 05:52:53;;;;;;;0.70;0.60;;;19.30;40.00;19.60;94260.00;;;;10421691;28;47488;-69
2021/10/28 05:58:00;;;;;;;0.82;0.57;;;19.30;40.00;19.60;94268.00;;;;10421205;28;47092;-67
2021/10/28 06:03:00;;;;;;;;;;;19.30;40.00;19.60;94257.00;;;;10438466;28;48466;-68
2021/10/28 06:08:01;;;;;;;0.30;0.30;;;19.30;40.00;19.60;94251.00;;;;10454306;28;47223;-67
2021/10/28 06:13:05;;;;;;;0.63;0.60;;;19.30;39.90;19.60;94250.00;;;;10437802;28;46363;-67
2021/10/28 06:23:18;;;;;;;0.80;0.60;;;19.30;40.00;19.60;94271.00;;;;10438744;28;45241;-68
2021/10/28 06:28:19;;;;;;;1.20;0.73;;;19.30;40.00;19.60;94268.00;;;;10437622;28;45295;-67
2021/10/28 06:33:28;;;;;;;0.52;0.43;;;19.30;40.00;19.60;94267.00;;;;10437149;28;47727;-67
2021/10/28 06:38:33;;;;;;;0.52;0.45;;;19.30;40.10;19.60;94283.00;;;;10437445;28;45524;-67
2021/10/28 06:43:34;;;;;;;0.60;0.60;;;19.30;40.00;19.60;94275.00;;;;10437187;28;46272;-67
2021/10/28 06:48:35;;;;;;;0.47;0.47;;;19.30;40.00;19.60;94294.00;;;;10436176;28;45575;-67
2021/10/28 06:53:44;;;;;;;0.63;0.50;;;19.30;40.00;19.60;94294.00;;;;10436169;28;45196;-68
2021/10/28 07:04:14;;;;;;;1.45;0.70;;;19.30;40.00;19.60;94289.00;;;;10416584;28;45383;-69
2021/10/28 07:09:21;;;;;;;0.70;0.60;;;19.40;39.90;19.70;94295.00;;;;10436270;28;47492;-70
2021/10/28 07:14:21;;;;;;;0.60;0.60;;;19.40;40.10;19.70;94289.00;;;;10399587;28;48397;-74
2021/10/28 07:24:55;;;;;;;1.08;0.70;;;19.50;40.50;19.80;94305.00;;;;10411227;28;45138;-65
2021/10/28 07:35:28;;;;;;;1.13;0.70;;;19.50;39.90;19.80;94286.00;;;;10436139;28;45176;-63
2021/10/28 07:57:10;;;;;;;1.13;0.70;;;19.60;40.60;19.90;94291.00;;;;10394370;28;45633;-73
2021/10/28 08:22:59;;;;;;;2.15;0.77;;;19.70;40.30;19.90;94271.00;;;;10432064;28;45237;-67
2021/10/28 08:33:21;;;;;;;1.17;0.70;;;19.60;39.80;19.90;94273.00;;;;10433015;28;45181;-66
2021/10/28 08:38:24;;;;;;;0.88;0.68;;;19.60;39.90;19.90;94252.00;;;;10432140;28;45551;-67
2021/10/28 08:43:35;;;;;;;1.27;0.65;;;19.60;40.10;20.00;94254.00;;;;10415862;28;47462;-67
2021/10/28 08:48:40;;;;;;;1.13;0.70;;;19.70;40.20;20.00;94251.00;;;;10414863;28;47956;-67
2021/10/28 08:59:26;;;;;;;1.15;0.60;;;19.70;39.80;19.90;94229.00;;;;10440088;28;45373;-69
2021/10/28 09:26:44;;;;;;;3.35;0.80;;;19.70;40.00;20.10;94227.00;;;;10440724;28;45468;-72
2021/10/28 09:32:04;;;;;;;0.98;0.47;;;19.70;39.60;20.00;94242.00;;;;10447664;28;45227;-70
2021/10/28 09:59:07;;;;;;;1.52;0.88;;;19.70;40.20;20.10;94241.00;;;;10438410;28;45249;-72
2021/10/28 10:04:08;;;;;;;3.85;0.70;;;19.80;40.20;20.10;94231.00;;;;10437362;28;48340;-72
2021/10/28 10:09:10;;;;;;;1.00;0.70;;;19.80;40.20;20.10;94248.00;;;;10437759;28;47864;-72
2021/10/28 10:14:12;;;;;;;1.67;0.73;;;19.80;40.20;20.10;94242.00;;;;10420452;28;47053;-66
2021/10/28 10:19:15;;;;;;;1.40;0.82;;;19.80;40.00;20.10;94237.00;;;;10420030;28;47172;-66
2021/10/28 10:24:24;;;;;;;2.20;1.40;;;19.80;39.80;20.00;94239.00;;;;10436475;28;47095;-65
2021/10/28 11:23:34;;;;;;;2.50;1.33;;;19.70;39.60;19.90;94214.00;;;;10435809;28;45103;-67
2021/10/28 12:17:01;;;;;;;2.35;1.40;;;19.70;40.70;20.00;94139.00;;;;10432896;28;45104;-65
2021/10/28 12:44:18;;;;;;;3.17;1.45;;;19.80;41.50;20.10;94074.00;;;;10467336;28;45100;-72
2021/10/28 12:56:10;;;;;;;3.00;1.50;;;19.80;41.40;20.10;94073.00;;;;10476563;28;45163;-71
2021/10/28 13:38:33;;;;;;;2.58;1.58;;;19.70;40.60;20.00;94029.00;;;;10434107;28;45222;-65
2021/10/28 16:26:47;;;;;;;4.45;2.45;;;19.80;41.40;20.10;93969.00;;;;10432045;28;45355;-68
2021/10/28 16:31:48;;;;;;;3.67;2.22;;;19.80;41.70;20.10;93970.00;;;;10433539;28;46969;-69
2021/10/28 16:36:49;;;;;;;6.10;2.10;;;19.90;41.80;20.10;93968.00;;;;10432413;28;47359;-69
2021/10/28 16:41:55;;;;;;;4.95;2.40;;;19.80;42.20;20.10;93960.00;;;;10432394;28;45363;-69
2021/10/28 16:46:56;;;;;;;5.88;2.13;;;19.80;42.30;20.10;93946.00;;;;10433317;28;46201;-67
2021/10/28 16:51:56;;;;;;;4.88;2.20;;;19.90;42.30;20.10;93963.00;;;;10413567;28;47084;-66
2021/10/28 16:56:59;;;;;;;4.25;2.15;;;19.90;42.20;20.10;93963.00;;;;10415724;28;47048;-68
2021/10/28 17:02:00;;;;;;;6.50;2.20;;;19.90;42.20;20.10;93951.00;;;;10431389;28;45466;-68
2021/10/28 17:07:01;;;;;;;4.97;2.20;;;19.90;41.70;20.10;93955.00;;;;10432284;28;47223;-68
2021/10/28 17:12:03;;;;;;;5.45;3.13;;;19.90;41.50;20.10;93965.00;;;;10429928;28;45697;-66
2021/10/28 17:17:04;;;;;;;11.00;3.80;;;19.80;41.40;20.00;93956.00;;;;10439292;28;47900;-66
2021/10/28 17:22:05;;;;;;;9.90;4.60;;;19.80;41.20;20.00;93963.00;;;;10441228;28;45331;-66
2021/10/28 17:27:06;;;;;;;12.13;4.78;;;19.80;41.20;20.00;93955.00;;;;10439697;28;48329;-66
2021/10/28 17:32:08;;;;;;;15.13;5.15;;;19.80;41.20;20.00;93949.00;;;;10439452;28;47374;-66
2021/10/28 17:37:09;;;;;;;12.60;4.95;;;19.70;41.00;20.00;93961.00;;;;10439475;28;45619;-66
2021/10/28 17:42:10;;;;;;;13.68;5.45;;;19.70;40.90;20.00;93954.00;;;;10438603;28;47211;-66
2021/10/28 17:47:12;;;;;;;13.68;5.03;;;19.70;40.80;20.00;93948.00;;;;10439911;28;45349;-66
2021/10/28 17:52:13;;;;;;;11.20;4.95;;;19.80;40.60;19.90;93948.00;;;;10439532;28;45252;-67
2021/10/28 17:57:14;;;;;;;14.95;6.53;;;19.70;40.60;19.90;93944.00;;;;10439523;28;45304;-66
2021/10/28 18:02:15;;;;;;;20.65;8.60;;;19.70;40.60;19.90;93936.00;;;;10421115;28;47975;-67
2021/10/28 18:07:17;;;;;;;24.10;10.05;;;19.70;40.50;19.90;93935.00;;;;10436533;28;47280;-67
2021/10/28 18:12:19;;;;;;;30.08;10.73;;;19.70;40.50;19.90;93948.00;;;;10433437;28;46322;-65
2021/10/28 18:17:20;;;;;;;22.30;9.60;;;19.70;40.80;20.00;93960.00;;;;10436834;28;45593;-66
2021/10/28 18:22:21;;;;;;;24.63;9.15;;;19.70;41.10;20.00;93953.00;;;;10419756;28;47032;-70
2021/10/28 18:27:22;;;;;;;21.38;8.27;;;19.70;41.30;20.00;93951.00;;;;10435103;28;47326;-68
2021/10/28 18:32:23;;;;;;;19.88;8.25;;;19.70;41.50;20.10;93960.00;;;;10394285;28;47789;-69
2021/10/28 18:37:24;;;;;;;19.30;7.93;;;19.70;41.80;20.10;93954.00;;;;10398014;28;48421;-69
2021/10/28 18:42:25;;;;;;;15.52;6.70;;;19.80;42.10;20.10;93945.00;;;;10419987;28;48121;-70
2021/10/28 18:47:26;;;;;;;18.30;7.05;;;19.80;42.10;20.10;93942.00;;;;10437342;28;45424;-69
2021/10/28 18:52:29;;;;;;;17.05;7.10;;;19.80;42.00;20.10;93941.00;;;;10434888;28;47881;-66
2021/10/28 18:57:31;;;;;;;13.30;5.80;;;19.80;41.60;20.10;93941.00;;;;10394514;28;47319;-67
2021/10/28 19:02:33;;;;;;;11.43;4.70;;;19.80;41.90;20.10;93937.00;;;;10377755;28;47436;-67
2021/10/28 19:07:34;;;;;;;16.08;5.03;;;19.80;42.20;20.10;93949.00;;;;10420069;28;47367;-67
2021/10/28 19:12:35;;;;;;;10.27;4.45;;;19.90;42.20;20.10;93946.00;;;;10436286;28;46198;-68
2021/10/28 19:17:37;;;;;;;13.40;4.72;;;19.90;42.10;20.10;93944.00;;;;10436223;28;47620;-68
2021/10/28 19:22:39;;;;;;;13.45;4.55;;;19.90;42.10;20.10;93948.00;;;;10434261;28;46611;-69
2021/10/28 19:27:41;;;;;;;9.13;4.45;;;19.90;42.30;20.10;93931.00;;;;10414667;28;46759;-67
2021/10/28 19:32:42;;;;;;;9.85;4.47;;;19.90;42.30;20.20;93912.00;;;;10432300;28;47920;-67
2021/10/28 19:37:49;;;;;;;8.48;4.20;;;19.90;42.20;20.20;93921.00;;;;10434969;28;47041;-69
2021/10/28 19:48:10;;;;;;;9.10;3.45;;;19.90;42.00;20.10;93920.00;;;;10436226;28;45362;-70
2021/10/28 19:53:11;;;;;;;7.55;3.40;;;19.90;42.40;20.20;93900.00;;;;10435412;28;46966;-69
2021/10/28 19:58:18;;;;;;;8.30;4.28;;;19.90;42.30;20.20;93889.00;;;;10417311;28;47437;-72
2021/10/28 20:03:39;;;;;;;6.60;3.35;;;19.90;42.30;20.10;93894.00;;;;10434599;28;47609;-69
2021/10/28 20:24:10;;;;;;;6.95;2.53;;;19.90;42.00;20.20;93880.00;;;;10433438;28;45115;-70
2021/10/28 20:29:11;;;;;;;5.38;2.70;;;19.90;42.10;20.20;93898.00;;;;10433237;28;47384;-68
2021/10/28 20:39:30;;;;;;;6.03;2.58;;;19.90;42.00;20.20;93897.00;;;;10432233;28;45293;-69
2021/10/28 20:44:36;;;;;;;4.40;2.00;;;19.90;41.30;20.10;93888.00;;;;10427889;28;45623;-70
2021/10/28 20:49:36;;;;;;;4.22;1.98;;;19.90;41.20;20.10;93876.00;;;;10434220;28;47210;-69
2021/10/28 20:54:37;;;;;;;3.50;1.90;;;19.90;41.20;20.10;93880.00;;;;10437489;28;45790;-68
2021/10/28 20:59:38;;;;;;;4.50;2.20;;;19.90;41.10;20.10;93879.00;;;;10437105;28;47196;-63
2021/10/28 21:04:38;;;;;;;4.03;1.98;;;19.90;40.90;20.10;93886.00;;;;10442571;22;45407;-70
2021/10/28 21:09:39;;;;;;;3.67;1.98;;;19.90;40.80;20.10;93885.00;;;;10392372;28;48232;-64
2021/10/28 21:14:40;;;;;;;3.55;1.83;;;19.90;40.60;20.10;93886.00;;;;10398611;28;45173;-74
2021/10/28 21:19:41;;;;;;;2.55;1.58;;;19.90;40.40;20.10;93874.00;;;;10398335;28;47848;-63
2021/10/28 21:24:45;;;;;;;2.60;1.42;;;19.90;40.10;20.10;93873.00;;;;10381259;28;47116;-63
2021/10/28 21:29:47;;;;;;;2.50;1.30;;;19.80;39.80;20.00;93879.00;;;;10397574;28;46401;-62
2021/10/28 21:34:48;;;;;;;2.58;1.40;;;19.80;39.80;20.00;93860.00;;;;10397383;28;45248;-63
2021/10/28 21:39:54;;;;;;;5.78;2.10;;;19.70;39.70;19.90;93861.00;;;;10425343;28;45785;-63
2021/10/28 21:44:55;;;;;;;2.47;1.43;;;19.70;39.80;19.90;93841.00;;;;10438582;28;45307;-63
2021/10/28 21:49:57;;;;;;;2.10;1.55;;;19.70;39.80;19.90;93860.00;;;;10438281;28;45938;-63
2021/10/28 21:55:47;;;;;;;2.35;1.60;;;19.70;40.60;19.90;93849.00;;;;10434284;28;45155;-63
2021/10/28 22:00:34;;;;;;;3.58;1.50;;;19.60;39.80;19.90;93851.00;;;;10391455;28;45973;-63
2021/10/28 22:26:46;;;;;;;2.13;1.30;;;19.60;40.10;19.90;93803.00;;;;10437214;28;45424;-64
2021/10/28 22:31:46;;;;;;;4.32;1.70;;;19.60;40.20;19.80;93804.00;;;;10436738;28;45318;-63
2021/10/28 22:37:39;;;;;;;2.85;1.30;;;19.60;40.10;19.90;93804.00;;;;10436198;28;46091;-63
2021/10/28 22:42:11;;;;;;;1.60;1.20;;;19.60;40.20;19.80;93784.00;;;;10430446;28;46029;-63
2021/10/28 22:47:11;;;;;;;3.10;1.40;;;19.60;40.10;19.80;93790.00;;;;10435868;28;45722;-63
2021/10/28 22:57:32;;;;;;;1.88;1.20;;;19.50;40.20;19.80;93780.00;;;;10435638;28;45390;-63
2021/10/28 23:23:41;;;;;;;1.67;1.20;;;19.50;40.20;19.80;93771.00;;;;10434807;28;45115;-63
2021/10/28 23:28:41;;;;;;;2.30;1.30;;;19.50;40.90;19.80;93756.00;;;;10434397;28;46507;-64
2021/10/28 23:33:43;;;;;;;1.58;1.25;;;19.50;40.20;19.80;93760.00;;;;10434077;28;46079;-63
2021/10/28 23:38:43;;;;;;;1.70;1.17;;;19.50;40.20;19.80;93739.00;;;;10434406;28;46858;-63
2021/10/28 23:43:44;;;;;;;2.10;1.27;;;19.50;40.20;19.80;93739.00;;;;10433441;28;48413;-64
2021/10/28 23:48:45;;;;;;;3.60;1.38;;;19.50;40.20;19.80;93722.00;;;;10433584;28;46580;-63
2021/10/28 23:53:45;;;;;;;1.70;1.13;;;19.50;40.20;19.80;93733.00;;;;10434758;28;46506;-63
2021/10/28 23:58:46;;;;;;;2.38;1.35;;;19.50;40.20;19.70;93727.00;;;;10433271;28;45546;-62
